Terminal Aerodrome Forecast
Issued by NWS Cleveland, OH

Home | Current Version | Previous Version | Text Only | Print | Product List | Glossary Off
Versions: 1 2 3 4 5 6 7 8 9 10 11 12 13 14 15 16 17 18 19 20 21 22 23 24

000
FTUS41 KCLE 261100
TAFCAK
TAF
KCAK 261126Z 2612/2712 17006KT P6SM SCT045
     FM261500 23006KT P6SM SCT040 BKN200
     FM270400 26004KT P6SM VCTS SCT025 OVC035CB=

USA.gov is the U.S. government's official web portal to all federal, state and local government web resources and services.